Phoenix, Arizona
Current Conditions -  °F | °C
As of 9:51 AM on Saturday 25 Oct 2014 (Local Time) from KPHX Reporting Station
Scattered Clouds Scattered Clouds  
Wind Chill: 28°   Ceiling: Unl
Heat Index: 28°   Visibility: 10mi
Dew Point:   Wind: 9mph
Humidity: 31%   Direction: 130°SE
Pressure: 30.03"   Gusts: NA
Location:  33.45°N, 112.08°W
Report Text: KPHX 251651Z 13008KT 10SM SCT120 28/09 A3003 RMK AO2 SLP151 T02830094
Loading
Personal Weather Stations






























Interactive Weather Map
Tropical Storm Tracking
New forecast layout! Learn more

10-Day Weather Forecast

Advertisements
Track Severe Weather on mobile